sensor_id;sensor_type;location;lat;lon;timestamp;P1;durP1;ratioP1;P2;durP2;ratioP2
3815;SDS011;1923;48.154;11.536;2022-09-09T00:00:59;3.53;;;1.27;;
3815;SDS011;1923;48.154;11.536;2022-09-09T00:03:37;1.93;;;1.13;;
3815;SDS011;1923;48.154;11.536;2022-09-09T00:06:14;1.40;;;1.07;;
3815;SDS011;1923;48.154;11.536;2022-09-09T00:08:51;1.53;;;0.70;;
3815;SDS011;1923;48.154;11.536;2022-09-09T00:11:30;1.53;;;0.87;;
3815;SDS011;1923;48.154;11.536;2022-09-09T00:14:08;1.67;;;1.00;;
3815;SDS011;1923;48.154;11.536;2022-09-09T00:16:43;1.47;;;0.90;;
3815;SDS011;1923;48.154;11.536;2022-09-09T00:19:19;1.43;;;0.70;;
3815;SDS011;1923;48.154;11.536;2022-09-09T00:21:53;2.43;;;1.10;;
3815;SDS011;1923;48.154;11.536;2022-09-09T00:24:29;2.97;;;1.23;;
3815;SDS011;1923;48.154;11.536;2022-09-09T00:27:08;1.63;;;0.93;;
3815;SDS011;1923;48.154;11.536;2022-09-09T00:29:44;1.33;;;0.87;;
3815;SDS011;1923;48.154;11.536;2022-09-09T00:32:16;2.50;;;1.07;;
3815;SDS011;1923;48.154;11.536;2022-09-09T00:34:47;2.10;;;1.10;;
3815;SDS011;1923;48.154;11.536;2022-09-09T00:37:18;1.40;;;1.00;;
3815;SDS011;1923;48.154;11.536;2022-09-09T00:39:48;1.40;;;1.10;;
3815;SDS011;1923;48.154;11.536;2022-09-09T00:42:23;1.07;;;0.97;;
3815;SDS011;1923;48.154;11.536;2022-09-09T00:44:56;2.03;;;1.10;;
3815;SDS011;1923;48.154;11.536;2022-09-09T00:47:33;2.33;;;1.07;;
3815;SDS011;1923;48.154;11.536;2022-09-09T00:50:12;1.47;;;0.80;;
3815;SDS011;1923;48.154;11.536;2022-09-09T00:52:52;2.53;;;1.10;;
3815;SDS011;1923;48.154;11.536;2022-09-09T00:55:27;1.67;;;0.70;;
3815;SDS011;1923;48.154;11.536;2022-09-09T00:58:06;1.67;;;1.07;;
3815;SDS011;1923;48.154;11.536;2022-09-09T01:00:35;1.90;;;1.43;;
3815;SDS011;1923;48.154;11.536;2022-09-09T01:06:02;1.50;;;1.30;;
3815;SDS011;1923;48.154;11.536;2022-09-09T01:08:43;1.37;;;1.10;;
3815;SDS011;1923;48.154;11.536;2022-09-09T01:11:25;2.57;;;1.40;;
3815;SDS011;1923;48.154;11.536;2022-09-09T01:14:01;1.37;;;1.00;;
3815;SDS011;1923;48.154;11.536;2022-09-09T01:16:47;1.47;;;1.03;;
3815;SDS011;1923;48.154;11.536;2022-09-09T01:19:18;1.00;;;0.80;;
3815;SDS011;1923;48.154;11.536;2022-09-09T01:21:55;1.37;;;1.00;;
3815;SDS011;1923;48.154;11.536;2022-09-09T01:24:30;2.03;;;1.00;;
3815;SDS011;1923;48.154;11.536;2022-09-09T01:27:08;3.37;;;1.17;;
3815;SDS011;1923;48.154;11.536;2022-09-09T01:29:37;2.70;;;1.27;;
3815;SDS011;1923;48.154;11.536;2022-09-09T01:35:10;2.93;;;0.87;;
3815;SDS011;1923;48.154;11.536;2022-09-09T01:37:42;1.43;;;1.00;;
3815;SDS011;1923;48.154;11.536;2022-09-09T01:40:11;1.27;;;0.90;;
3815;SDS011;1923;48.154;11.536;2022-09-09T01:42:45;1.10;;;0.97;;
3815;SDS011;1923;48.154;11.536;2022-09-09T01:45:13;1.37;;;0.80;;
3815;SDS011;1923;48.154;11.536;2022-09-09T01:47:41;1.20;;;0.90;;
3815;SDS011;1923;48.154;11.536;2022-09-09T01:50:09;2.10;;;1.50;;
3815;SDS011;1923;48.154;11.536;2022-09-09T01:52:41;1.37;;;0.90;;
3815;SDS011;1923;48.154;11.536;2022-09-09T01:55:11;1.57;;;0.80;;
3815;SDS011;1923;48.154;11.536;2022-09-09T01:57:41;1.50;;;0.90;;
3815;SDS011;1923;48.154;11.536;2022-09-09T02:00:17;2.70;;;1.10;;
3815;SDS011;1923;48.154;11.536;2022-09-09T02:02:48;4.80;;;1.30;;
3815;SDS011;1923;48.154;11.536;2022-09-09T02:05:27;1.73;;;1.27;;
3815;SDS011;1923;48.154;11.536;2022-09-09T02:08:03;3.43;;;1.60;;
3815;SDS011;1923;48.154;11.536;2022-09-09T02:10:35;1.73;;;1.53;;
3815;SDS011;1923;48.154;11.536;2022-09-09T02:13:11;1.73;;;1.10;;
3815;SDS011;1923;48.154;11.536;2022-09-09T02:15:49;2.70;;;1.33;;
3815;SDS011;1923;48.154;11.536;2022-09-09T02:18:24;2.23;;;1.53;;
3815;SDS011;1923;48.154;11.536;2022-09-09T02:20:55;3.57;;;1.63;;
3815;SDS011;1923;48.154;11.536;2022-09-09T02:23:33;2.10;;;1.40;;
3815;SDS011;1923;48.154;11.536;2022-09-09T02:26:02;4.40;;;2.00;;
3815;SDS011;1923;48.154;11.536;2022-09-09T02:28:31;3.30;;;2.03;;
3815;SDS011;1923;48.154;11.536;2022-09-09T02:31:03;2.00;;;1.33;;
3815;SDS011;1923;48.154;11.536;2022-09-09T02:33:33;2.03;;;1.17;;
3815;SDS011;1923;48.154;11.536;2022-09-09T02:36:05;1.83;;;1.27;;
3815;SDS011;1923;48.154;11.536;2022-09-09T02:38:36;3.67;;;1.30;;
3815;SDS011;1923;48.154;11.536;2022-09-09T02:41:07;2.40;;;1.43;;
3815;SDS011;1923;48.154;11.536;2022-09-09T02:43:35;1.30;;;1.10;;
3815;SDS011;1923;48.154;11.536;2022-09-09T02:46:08;3.20;;;1.40;;
3815;SDS011;1923;48.154;11.536;2022-09-09T02:48:49;2.47;;;1.20;;
3815;SDS011;1923;48.154;11.536;2022-09-09T02:51:23;2.40;;;1.10;;
3815;SDS011;1923;48.154;11.536;2022-09-09T02:53:59;2.20;;;1.77;;
3815;SDS011;1923;48.154;11.536;2022-09-09T02:56:39;3.10;;;1.60;;
3815;SDS011;1923;48.154;11.536;2022-09-09T02:59:11;2.83;;;1.10;;
3815;SDS011;1923;48.154;11.536;2022-09-09T03:01:41;1.80;;;1.27;;
3815;SDS011;1923;48.154;11.536;2022-09-09T03:04:16;1.90;;;1.23;;
3815;SDS011;1923;48.154;11.536;2022-09-09T03:06:44;1.50;;;1.00;;
3815;SDS011;1923;48.154;11.536;2022-09-09T03:09:12;2.37;;;1.20;;
3815;SDS011;1923;48.154;11.536;2022-09-09T03:11:40;1.33;;;1.10;;
3815;SDS011;1923;48.154;11.536;2022-09-09T03:14:07;1.97;;;1.23;;
3815;SDS011;1923;48.154;11.536;2022-09-09T03:16:37;1.60;;;1.20;;
3815;SDS011;1923;48.154;11.536;2022-09-09T03:19:06;2.70;;;1.40;;
3815;SDS011;1923;48.154;11.536;2022-09-09T03:21:34;2.07;;;1.00;;
3815;SDS011;1923;48.154;11.536;2022-09-09T03:24:02;2.63;;;1.33;;
3815;SDS011;1923;48.154;11.536;2022-09-09T03:26:31;1.47;;;1.00;;
3815;SDS011;1923;48.154;11.536;2022-09-09T03:28:59;1.17;;;1.07;;
3815;SDS011;1923;48.154;11.536;2022-09-09T03:31:27;2.67;;;1.47;;
3815;SDS011;1923;48.154;11.536;2022-09-09T03:33:56;2.50;;;1.80;;
3815;SDS011;1923;48.154;11.536;2022-09-09T03:36:26;1.23;;;1.00;;
3815;SDS011;1923;48.154;11.536;2022-09-09T03:38:54;2.40;;;1.10;;
3815;SDS011;1923;48.154;11.536;2022-09-09T03:41:22;2.23;;;1.20;;
3815;SDS011;1923;48.154;11.536;2022-09-09T03:43:51;2.30;;;1.30;;
3815;SDS011;1923;48.154;11.536;2022-09-09T03:46:19;2.03;;;1.20;;
3815;SDS011;1923;48.154;11.536;2022-09-09T03:48:48;1.30;;;1.03;;
3815;SDS011;1923;48.154;11.536;2022-09-09T03:51:17;1.63;;;1.27;;
3815;SDS011;1923;48.154;11.536;2022-09-09T03:53:46;1.70;;;1.50;;
3815;SDS011;1923;48.154;11.536;2022-09-09T03:56:14;1.67;;;1.50;;
3815;SDS011;1923;48.154;11.536;2022-09-09T03:58:42;1.87;;;1.10;;
3815;SDS011;1923;48.154;11.536;2022-09-09T04:01:10;2.50;;;1.47;;
3815;SDS011;1923;48.154;11.536;2022-09-09T04:03:40;1.90;;;1.23;;
3815;SDS011;1923;48.154;11.536;2022-09-09T04:06:09;1.83;;;1.30;;
3815;SDS011;1923;48.154;11.536;2022-09-09T04:08:39;1.77;;;1.30;;
3815;SDS011;1923;48.154;11.536;2022-09-09T04:11:09;1.60;;;1.00;;
3815;SDS011;1923;48.154;11.536;2022-09-09T04:13:37;1.40;;;1.20;;
3815;SDS011;1923;48.154;11.536;2022-09-09T04:16:06;3.00;;;1.37;;
3815;SDS011;1923;48.154;11.536;2022-09-09T04:18:37;1.87;;;1.10;;
3815;SDS011;1923;48.154;11.536;2022-09-09T04:21:05;2.40;;;1.30;;
3815;SDS011;1923;48.154;11.536;2022-09-09T04:23:34;1.70;;;1.00;;
3815;SDS011;1923;48.154;11.536;2022-09-09T04:26:02;3.30;;;1.10;;
3815;SDS011;1923;48.154;11.536;2022-09-09T04:28:33;2.10;;;1.43;;
3815;SDS011;1923;48.154;11.536;2022-09-09T04:31:06;2.40;;;1.43;;
3815;SDS011;1923;48.154;11.536;2022-09-09T04:33:35;4.30;;;1.60;;
3815;SDS011;1923;48.154;11.536;2022-09-09T04:36:06;1.60;;;1.43;;
3815;SDS011;1923;48.154;11.536;2022-09-09T04:38:34;4.40;;;1.10;;
3815;SDS011;1923;48.154;11.536;2022-09-09T04:41:03;4.03;;;2.50;;
3815;SDS011;1923;48.154;11.536;2022-09-09T04:43:33;2.80;;;1.30;;
3815;SDS011;1923;48.154;11.536;2022-09-09T04:46:01;2.30;;;1.70;;
3815;SDS011;1923;48.154;11.536;2022-09-09T04:48:29;2.17;;;1.57;;
3815;SDS011;1923;48.154;11.536;2022-09-09T04:50:58;2.53;;;1.40;;
3815;SDS011;1923;48.154;11.536;2022-09-09T04:53:27;1.30;;;1.20;;
3815;SDS011;1923;48.154;11.536;2022-09-09T04:56:00;2.23;;;1.33;;
3815;SDS011;1923;48.154;11.536;2022-09-09T04:58:29;2.70;;;1.53;;
3815;SDS011;1923;48.154;11.536;2022-09-09T05:01:07;3.30;;;1.70;;
3815;SDS011;1923;48.154;11.536;2022-09-09T05:03:36;2.43;;;1.47;;
3815;SDS011;1923;48.154;11.536;2022-09-09T05:06:05;1.93;;;1.27;;
3815;SDS011;1923;48.154;11.536;2022-09-09T05:08:34;2.10;;;1.40;;
3815;SDS011;1923;48.154;11.536;2022-09-09T05:11:03;2.47;;;1.43;;
3815;SDS011;1923;48.154;11.536;2022-09-09T05:13:31;1.63;;;1.10;;
3815;SDS011;1923;48.154;11.536;2022-09-09T05:16:04;5.90;;;1.90;;
3815;SDS011;1923;48.154;11.536;2022-09-09T05:18:37;2.33;;;1.30;;
3815;SDS011;1923;48.154;11.536;2022-09-09T05:21:05;3.23;;;1.30;;
3815;SDS011;1923;48.154;11.536;2022-09-09T05:23:34;2.70;;;1.90;;
3815;SDS011;1923;48.154;11.536;2022-09-09T05:26:03;1.67;;;1.40;;
3815;SDS011;1923;48.154;11.536;2022-09-09T05:28:33;3.00;;;1.30;;
3815;SDS011;1923;48.154;11.536;2022-09-09T05:31:03;2.63;;;1.40;;
3815;SDS011;1923;48.154;11.536;2022-09-09T05:33:35;1.80;;;1.60;;
3815;SDS011;1923;48.154;11.536;2022-09-09T05:36:07;2.63;;;1.67;;
3815;SDS011;1923;48.154;11.536;2022-09-09T05:38:37;2.03;;;1.70;;
3815;SDS011;1923;48.154;11.536;2022-09-09T05:41:05;2.00;;;1.30;;
3815;SDS011;1923;48.154;11.536;2022-09-09T05:43:34;5.10;;;1.47;;
3815;SDS011;1923;48.154;11.536;2022-09-09T05:46:02;1.73;;;1.33;;
3815;SDS011;1923;48.154;11.536;2022-09-09T05:48:32;2.10;;;1.30;;
3815;SDS011;1923;48.154;11.536;2022-09-09T05:51:02;2.40;;;1.33;;
3815;SDS011;1923;48.154;11.536;2022-09-09T05:53:33;1.90;;;1.10;;
3815;SDS011;1923;48.154;11.536;2022-09-09T05:56:01;2.80;;;1.67;;
3815;SDS011;1923;48.154;11.536;2022-09-09T05:58:30;3.37;;;1.40;;
3815;SDS011;1923;48.154;11.536;2022-09-09T06:01:02;3.00;;;1.50;;
3815;SDS011;1923;48.154;11.536;2022-09-09T06:03:33;3.17;;;1.40;;
3815;SDS011;1923;48.154;11.536;2022-09-09T06:06:03;3.33;;;1.50;;
3815;SDS011;1923;48.154;11.536;2022-09-09T06:08:33;2.90;;;1.50;;
3815;SDS011;1923;48.154;11.536;2022-09-09T06:11:03;3.90;;;2.10;;
3815;SDS011;1923;48.154;11.536;2022-09-09T06:13:34;1.53;;;1.20;;
3815;SDS011;1923;48.154;11.536;2022-09-09T06:16:03;1.77;;;1.40;;
3815;SDS011;1923;48.154;11.536;2022-09-09T06:18:33;1.73;;;1.30;;
3815;SDS011;1923;48.154;11.536;2022-09-09T06:21:03;2.00;;;1.13;;
3815;SDS011;1923;48.154;11.536;2022-09-09T06:23:33;2.60;;;1.50;;
3815;SDS011;1923;48.154;11.536;2022-09-09T06:26:02;2.50;;;1.80;;
3815;SDS011;1923;48.154;11.536;2022-09-09T06:28:32;1.73;;;1.30;;
3815;SDS011;1923;48.154;11.536;2022-09-09T06:31:01;1.20;;;1.07;;
3815;SDS011;1923;48.154;11.536;2022-09-09T06:33:31;1.53;;;1.30;;
3815;SDS011;1923;48.154;11.536;2022-09-09T06:36:03;1.73;;;1.30;;
3815;SDS011;1923;48.154;11.536;2022-09-09T06:38:32;2.83;;;1.40;;
3815;SDS011;1923;48.154;11.536;2022-09-09T06:41:00;3.20;;;1.33;;
3815;SDS011;1923;48.154;11.536;2022-09-09T06:43:28;1.90;;;0.97;;
3815;SDS011;1923;48.154;11.536;2022-09-09T06:45:56;5.97;;;2.77;;
3815;SDS011;1923;48.154;11.536;2022-09-09T06:48:25;22.23;;;5.23;;
3815;SDS011;1923;48.154;11.536;2022-09-09T06:51:03;5.50;;;2.57;;
3815;SDS011;1923;48.154;11.536;2022-09-09T06:53:32;3.73;;;1.70;;
3815;SDS011;1923;48.154;11.536;2022-09-09T06:56:01;1.53;;;0.90;;
3815;SDS011;1923;48.154;11.536;2022-09-09T06:58:44;3.63;;;1.70;;
3815;SDS011;1923;48.154;11.536;2022-09-09T07:01:12;5.00;;;1.40;;
3815;SDS011;1923;48.154;11.536;2022-09-09T07:03:42;3.80;;;1.53;;
3815;SDS011;1923;48.154;11.536;2022-09-09T07:06:14;2.27;;;1.23;;
3815;SDS011;1923;48.154;11.536;2022-09-09T07:08:47;1.47;;;1.10;;
3815;SDS011;1923;48.154;11.536;2022-09-09T07:11:22;3.10;;;1.60;;
3815;SDS011;1923;48.154;11.536;2022-09-09T07:13:53;2.67;;;1.00;;
3815;SDS011;1923;48.154;11.536;2022-09-09T07:16:23;1.50;;;0.93;;
3815;SDS011;1923;48.154;11.536;2022-09-09T07:18:52;2.93;;;1.60;;
3815;SDS011;1923;48.154;11.536;2022-09-09T07:21:25;1.10;;;0.90;;
3815;SDS011;1923;48.154;11.536;2022-09-09T07:23:55;1.50;;;1.10;;
3815;SDS011;1923;48.154;11.536;2022-09-09T07:26:24;2.70;;;1.20;;
3815;SDS011;1923;48.154;11.536;2022-09-09T07:28:53;2.07;;;1.50;;
3815;SDS011;1923;48.154;11.536;2022-09-09T07:31:24;3.37;;;1.10;;
3815;SDS011;1923;48.154;11.536;2022-09-09T07:33:54;1.90;;;0.93;;
3815;SDS011;1923;48.154;11.536;2022-09-09T07:36:22;1.40;;;0.83;;
3815;SDS011;1923;48.154;11.536;2022-09-09T07:39:00;3.40;;;1.53;;
3815;SDS011;1923;48.154;11.536;2022-09-09T07:41:30;1.10;;;0.90;;
3815;SDS011;1923;48.154;11.536;2022-09-09T07:44:05;3.03;;;1.03;;
3815;SDS011;1923;48.154;11.536;2022-09-09T07:46:35;1.60;;;0.83;;
3815;SDS011;1923;48.154;11.536;2022-09-09T07:49:06;3.23;;;1.50;;
3815;SDS011;1923;48.154;11.536;2022-09-09T07:51:35;1.67;;;1.00;;
3815;SDS011;1923;48.154;11.536;2022-09-09T07:54:06;2.20;;;1.00;;
3815;SDS011;1923;48.154;11.536;2022-09-09T07:56:35;1.27;;;0.80;;
3815;SDS011;1923;48.154;11.536;2022-09-09T07:59:05;1.60;;;1.03;;
3815;SDS011;1923;48.154;11.536;2022-09-09T08:01:35;1.50;;;1.00;;
3815;SDS011;1923;48.154;11.536;2022-09-09T08:04:06;1.63;;;0.87;;
3815;SDS011;1923;48.154;11.536;2022-09-09T08:06:36;3.43;;;1.40;;
3815;SDS011;1923;48.154;11.536;2022-09-09T08:09:06;2.00;;;1.20;;
3815;SDS011;1923;48.154;11.536;2022-09-09T08:11:36;1.30;;;0.90;;
3815;SDS011;1923;48.154;11.536;2022-09-09T08:14:05;1.10;;;0.70;;
3815;SDS011;1923;48.154;11.536;2022-09-09T08:16:35;1.47;;;0.87;;
3815;SDS011;1923;48.154;11.536;2022-09-09T08:19:05;4.50;;;1.20;;
3815;SDS011;1923;48.154;11.536;2022-09-09T08:21:35;5.50;;;1.03;;
3815;SDS011;1923;48.154;11.536;2022-09-09T08:24:06;2.60;;;1.07;;
3815;SDS011;1923;48.154;11.536;2022-09-09T08:26:37;1.70;;;1.10;;
3815;SDS011;1923;48.154;11.536;2022-09-09T08:29:06;1.73;;;1.60;;
3815;SDS011;1923;48.154;11.536;2022-09-09T08:31:36;3.27;;;1.33;;
3815;SDS011;1923;48.154;11.536;2022-09-09T08:34:06;2.10;;;1.30;;
3815;SDS011;1923;48.154;11.536;2022-09-09T08:36:36;1.47;;;1.00;;
3815;SDS011;1923;48.154;11.536;2022-09-09T08:39:08;2.20;;;0.97;;
3815;SDS011;1923;48.154;11.536;2022-09-09T08:44:37;2.90;;;1.00;;
3815;SDS011;1923;48.154;11.536;2022-09-09T08:47:26;2.27;;;1.43;;
3815;SDS011;1923;48.154;11.536;2022-09-09T08:50:05;1.43;;;1.10;;
3815;SDS011;1923;48.154;11.536;2022-09-09T08:52:46;3.60;;;1.70;;
3815;SDS011;1923;48.154;11.536;2022-09-09T08:55:22;2.67;;;1.47;;
3815;SDS011;1923;48.154;11.536;2022-09-09T08:57:55;2.30;;;1.37;;
3815;SDS011;1923;48.154;11.536;2022-09-09T09:00:28;2.43;;;1.23;;
3815;SDS011;1923;48.154;11.536;2022-09-09T09:03:04;1.90;;;1.20;;
3815;SDS011;1923;48.154;11.536;2022-09-09T09:05:41;1.23;;;1.00;;
3815;SDS011;1923;48.154;11.536;2022-09-09T09:08:17;1.47;;;1.23;;
3815;SDS011;1923;48.154;11.536;2022-09-09T09:10:55;2.17;;;1.30;;
3815;SDS011;1923;48.154;11.536;2022-09-09T09:13:26;2.40;;;1.63;;
3815;SDS011;1923;48.154;11.536;2022-09-09T09:16:11;4.20;;;2.70;;
3815;SDS011;1923;48.154;11.536;2022-09-09T09:18:46;3.00;;;1.87;;
3815;SDS011;1923;48.154;11.536;2022-09-09T09:21:15;2.17;;;1.37;;
3815;SDS011;1923;48.154;11.536;2022-09-09T09:23:48;1.80;;;1.30;;
3815;SDS011;1923;48.154;11.536;2022-09-09T09:26:25;1.53;;;1.10;;
3815;SDS011;1923;48.154;11.536;2022-09-09T09:28:58;1.07;;;0.97;;
3815;SDS011;1923;48.154;11.536;2022-09-09T09:31:29;2.37;;;1.43;;
3815;SDS011;1923;48.154;11.536;2022-09-09T09:33:58;1.50;;;1.10;;
3815;SDS011;1923;48.154;11.536;2022-09-09T09:36:33;1.37;;;1.00;;
3815;SDS011;1923;48.154;11.536;2022-09-09T09:39:03;1.07;;;0.90;;
3815;SDS011;1923;48.154;11.536;2022-09-09T09:41:53;1.50;;;0.73;;
3815;SDS011;1923;48.154;11.536;2022-09-09T09:44:23;1.03;;;0.77;;
3815;SDS011;1923;48.154;11.536;2022-09-09T09:47:04;1.67;;;0.80;;
3815;SDS011;1923;48.154;11.536;2022-09-09T09:49:33;1.83;;;0.80;;
3815;SDS011;1923;48.154;11.536;2022-09-09T09:52:01;2.70;;;0.83;;
3815;SDS011;1923;48.154;11.536;2022-09-09T09:54:31;1.60;;;0.97;;
3815;SDS011;1923;48.154;11.536;2022-09-09T09:57:10;3.53;;;1.20;;
3815;SDS011;1923;48.154;11.536;2022-09-09T09:59:41;2.50;;;1.07;;
3815;SDS011;1923;48.154;11.536;2022-09-09T10:02:16;4.20;;;1.10;;
3815;SDS011;1923;48.154;11.536;2022-09-09T10:04:46;2.20;;;1.43;;
3815;SDS011;1923;48.154;11.536;2022-09-09T10:07:17;1.20;;;0.90;;
3815;SDS011;1923;48.154;11.536;2022-09-09T10:09:48;1.47;;;1.20;;
3815;SDS011;1923;48.154;11.536;2022-09-09T10:12:24;4.13;;;1.57;;
3815;SDS011;1923;48.154;11.536;2022-09-09T10:15:01;1.50;;;1.10;;
3815;SDS011;1923;48.154;11.536;2022-09-09T10:17:40;1.77;;;0.93;;
3815;SDS011;1923;48.154;11.536;2022-09-09T10:20:17;1.20;;;1.00;;
3815;SDS011;1923;48.154;11.536;2022-09-09T10:23:02;2.20;;;1.50;;
3815;SDS011;1923;48.154;11.536;2022-09-09T10:25:44;3.67;;;1.20;;
3815;SDS011;1923;48.154;11.536;2022-09-09T10:28:30;2.23;;;0.90;;
3815;SDS011;1923;48.154;11.536;2022-09-09T10:31:12;1.20;;;1.00;;
3815;SDS011;1923;48.154;11.536;2022-09-09T10:33:50;2.00;;;1.43;;
3815;SDS011;1923;48.154;11.536;2022-09-09T10:36:25;4.10;;;1.17;;
3815;SDS011;1923;48.154;11.536;2022-09-09T10:38:57;1.97;;;1.30;;
3815;SDS011;1923;48.154;11.536;2022-09-09T10:41:35;3.93;;;1.30;;
3815;SDS011;1923;48.154;11.536;2022-09-09T10:44:16;2.27;;;1.43;;
3815;SDS011;1923;48.154;11.536;2022-09-09T10:46:56;3.07;;;1.00;;
3815;SDS011;1923;48.154;11.536;2022-09-09T10:49:45;1.20;;;1.00;;
3815;SDS011;1923;48.154;11.536;2022-09-09T10:52:24;1.30;;;1.20;;
3815;SDS011;1923;48.154;11.536;2022-09-09T10:54:58;2.60;;;1.00;;
3815;SDS011;1923;48.154;11.536;2022-09-09T10:57:31;1.37;;;0.77;;
3815;SDS011;1923;48.154;11.536;2022-09-09T11:00:06;2.17;;;0.97;;
3815;SDS011;1923;48.154;11.536;2022-09-09T11:02:41;1.13;;;0.90;;
3815;SDS011;1923;48.154;11.536;2022-09-09T11:05:10;2.90;;;0.90;;
3815;SDS011;1923;48.154;11.536;2022-09-09T11:07:47;0.80;;;0.60;;
3815;SDS011;1923;48.154;11.536;2022-09-09T11:10:21;1.37;;;0.70;;
3815;SDS011;1923;48.154;11.536;2022-09-09T11:12:53;2.10;;;1.10;;
3815;SDS011;1923;48.154;11.536;2022-09-09T11:15:30;3.50;;;0.90;;
3815;SDS011;1923;48.154;11.536;2022-09-09T11:18:08;0.80;;;0.80;;
3815;SDS011;1923;48.154;11.536;2022-09-09T11:20:40;1.30;;;0.63;;
3815;SDS011;1923;48.154;11.536;2022-09-09T11:23:11;1.13;;;0.70;;
3815;SDS011;1923;48.154;11.536;2022-09-09T11:25:42;2.73;;;1.00;;
3815;SDS011;1923;48.154;11.536;2022-09-09T11:28:27;2.23;;;0.50;;
3815;SDS011;1923;48.154;11.536;2022-09-09T11:31:09;1.33;;;0.70;;
3815;SDS011;1923;48.154;11.536;2022-09-09T11:33:50;1.93;;;1.37;;
3815;SDS011;1923;48.154;11.536;2022-09-09T11:39:33;0.97;;;0.70;;
3815;SDS011;1923;48.154;11.536;2022-09-09T11:42:23;2.60;;;1.23;;
3815;SDS011;1923;48.154;11.536;2022-09-09T11:44:52;1.33;;;0.70;;
3815;SDS011;1923;48.154;11.536;2022-09-09T11:47:23;0.90;;;0.60;;
3815;SDS011;1923;48.154;11.536;2022-09-09T11:50:06;1.10;;;0.90;;
3815;SDS011;1923;48.154;11.536;2022-09-09T11:52:36;1.47;;;0.50;;
3815;SDS011;1923;48.154;11.536;2022-09-09T11:55:10;1.10;;;0.70;;
3815;SDS011;1923;48.154;11.536;2022-09-09T11:57:39;1.27;;;0.63;;
3815;SDS011;1923;48.154;11.536;2022-09-09T12:00:27;2.73;;;0.80;;
3815;SDS011;1923;48.154;11.536;2022-09-09T12:03:03;2.63;;;0.63;;
3815;SDS011;1923;48.154;11.536;2022-09-09T12:05:35;1.30;;;0.60;;
3815;SDS011;1923;48.154;11.536;2022-09-09T12:08:04;0.70;;;0.50;;
3815;SDS011;1923;48.154;11.536;2022-09-09T12:10:34;1.00;;;0.60;;
3815;SDS011;1923;48.154;11.536;2022-09-09T12:13:15;1.97;;;0.63;;
3815;SDS011;1923;48.154;11.536;2022-09-09T12:15:48;1.13;;;0.80;;
3815;SDS011;1923;48.154;11.536;2022-09-09T12:18:23;1.60;;;0.47;;
3815;SDS011;1923;48.154;11.536;2022-09-09T12:20:54;0.90;;;0.50;;
3815;SDS011;1923;48.154;11.536;2022-09-09T12:23:34;1.97;;;0.80;;
3815;SDS011;1923;48.154;11.536;2022-09-09T12:26:15;2.03;;;0.80;;
3815;SDS011;1923;48.154;11.536;2022-09-09T12:28:55;0.80;;;0.50;;
3815;SDS011;1923;48.154;11.536;2022-09-09T12:31:32;1.07;;;0.50;;
3815;SDS011;1923;48.154;11.536;2022-09-09T12:34:14;1.20;;;0.80;;
3815;SDS011;1923;48.154;11.536;2022-09-09T12:36:45;1.33;;;0.70;;
3815;SDS011;1923;48.154;11.536;2022-09-09T12:39:19;2.10;;;0.97;;
3815;SDS011;1923;48.154;11.536;2022-09-09T12:41:52;1.60;;;0.80;;
3815;SDS011;1923;48.154;11.536;2022-09-09T12:44:23;0.97;;;0.70;;
3815;SDS011;1923;48.154;11.536;2022-09-09T12:46:51;2.30;;;0.67;;
3815;SDS011;1923;48.154;11.536;2022-09-09T12:49:25;1.03;;;0.53;;
3815;SDS011;1923;48.154;11.536;2022-09-09T12:51:57;2.80;;;0.90;;
3815;SDS011;1923;48.154;11.536;2022-09-09T12:54:26;1.00;;;0.60;;
3815;SDS011;1923;48.154;11.536;2022-09-09T12:56:54;1.00;;;0.67;;
3815;SDS011;1923;48.154;11.536;2022-09-09T12:59:23;0.70;;;0.50;;
3815;SDS011;1923;48.154;11.536;2022-09-09T13:01:56;1.63;;;0.80;;
3815;SDS011;1923;48.154;11.536;2022-09-09T13:04:27;0.80;;;0.50;;
3815;SDS011;1923;48.154;11.536;2022-09-09T13:07:05;1.00;;;0.80;;
3815;SDS011;1923;48.154;11.536;2022-09-09T13:09:36;0.87;;;0.57;;
3815;SDS011;1923;48.154;11.536;2022-09-09T13:12:04;1.50;;;0.87;;
3815;SDS011;1923;48.154;11.536;2022-09-09T13:14:39;1.00;;;0.80;;
3815;SDS011;1923;48.154;11.536;2022-09-09T13:17:18;1.83;;;0.60;;
3815;SDS011;1923;48.154;11.536;2022-09-09T13:19:50;3.63;;;0.70;;
3815;SDS011;1923;48.154;11.536;2022-09-09T13:22:21;1.00;;;0.80;;
3815;SDS011;1923;48.154;11.536;2022-09-09T13:25:00;0.70;;;0.40;;
3815;SDS011;1923;48.154;11.536;2022-09-09T13:27:31;0.77;;;0.60;;
3815;SDS011;1923;48.154;11.536;2022-09-09T13:30:00;1.10;;;0.70;;
3815;SDS011;1923;48.154;11.536;2022-09-09T13:32:28;0.70;;;0.50;;
3815;SDS011;1923;48.154;11.536;2022-09-09T13:34:59;2.23;;;0.70;;
3815;SDS011;1923;48.154;11.536;2022-09-09T13:37:31;1.40;;;0.90;;
3815;SDS011;1923;48.154;11.536;2022-09-09T13:40:01;1.23;;;0.50;;
3815;SDS011;1923;48.154;11.536;2022-09-09T13:42:32;0.70;;;0.40;;
3815;SDS011;1923;48.154;11.536;2022-09-09T13:45:14;0.90;;;0.63;;
3815;SDS011;1923;48.154;11.536;2022-09-09T13:47:46;2.40;;;0.70;;
3815;SDS011;1923;48.154;11.536;2022-09-09T13:50:20;0.90;;;0.60;;
3815;SDS011;1923;48.154;11.536;2022-09-09T13:52:50;2.73;;;1.03;;
3815;SDS011;1923;48.154;11.536;2022-09-09T13:55:20;0.90;;;0.40;;
3815;SDS011;1923;48.154;11.536;2022-09-09T13:57:50;2.63;;;0.50;;
3815;SDS011;1923;48.154;11.536;2022-09-09T14:00:19;2.80;;;0.70;;
3815;SDS011;1923;48.154;11.536;2022-09-09T14:02:47;1.00;;;0.60;;
3815;SDS011;1923;48.154;11.536;2022-09-09T14:05:16;1.23;;;0.60;;
3815;SDS011;1923;48.154;11.536;2022-09-09T14:07:46;0.80;;;0.70;;
3815;SDS011;1923;48.154;11.536;2022-09-09T14:10:18;1.60;;;0.53;;
3815;SDS011;1923;48.154;11.536;2022-09-09T14:12:47;0.90;;;0.60;;
3815;SDS011;1923;48.154;11.536;2022-09-09T14:15:15;2.73;;;1.63;;
3815;SDS011;1923;48.154;11.536;2022-09-09T14:17:43;1.70;;;0.70;;
3815;SDS011;1923;48.154;11.536;2022-09-09T14:20:11;3.47;;;0.80;;
3815;SDS011;1923;48.154;11.536;2022-09-09T14:22:41;2.90;;;1.00;;
3815;SDS011;1923;48.154;11.536;2022-09-09T14:25:11;3.03;;;0.73;;
3815;SDS011;1923;48.154;11.536;2022-09-09T14:27:40;0.70;;;0.50;;
3815;SDS011;1923;48.154;11.536;2022-09-09T14:30:10;1.53;;;0.73;;
3815;SDS011;1923;48.154;11.536;2022-09-09T14:32:38;3.23;;;0.70;;
3815;SDS011;1923;48.154;11.536;2022-09-09T14:35:06;1.80;;;0.70;;
3815;SDS011;1923;48.154;11.536;2022-09-09T14:37:35;0.80;;;0.50;;
3815;SDS011;1923;48.154;11.536;2022-09-09T14:40:05;0.97;;;0.70;;
3815;SDS011;1923;48.154;11.536;2022-09-09T14:42:36;1.17;;;0.60;;
3815;SDS011;1923;48.154;11.536;2022-09-09T14:45:04;0.80;;;0.50;;
3815;SDS011;1923;48.154;11.536;2022-09-09T14:47:33;0.60;;;0.43;;
3815;SDS011;1923;48.154;11.536;2022-09-09T14:50:01;0.90;;;0.60;;
3815;SDS011;1923;48.154;11.536;2022-09-09T14:52:31;1.33;;;0.80;;
3815;SDS011;1923;48.154;11.536;2022-09-09T14:54:59;1.07;;;0.50;;
3815;SDS011;1923;48.154;11.536;2022-09-09T14:57:27;2.10;;;1.20;;
3815;SDS011;1923;48.154;11.536;2022-09-09T14:59:56;1.90;;;0.80;;
3815;SDS011;1923;48.154;11.536;2022-09-09T15:02:24;1.73;;;0.60;;
3815;SDS011;1923;48.154;11.536;2022-09-09T15:04:52;1.00;;;0.70;;
3815;SDS011;1923;48.154;11.536;2022-09-09T15:07:23;1.07;;;0.60;;
3815;SDS011;1923;48.154;11.536;2022-09-09T15:09:51;1.30;;;0.77;;
3815;SDS011;1923;48.154;11.536;2022-09-09T15:12:19;0.80;;;0.53;;
3815;SDS011;1923;48.154;11.536;2022-09-09T15:14:47;0.80;;;0.57;;
3815;SDS011;1923;48.154;11.536;2022-09-09T15:17:17;1.70;;;0.60;;
3815;SDS011;1923;48.154;11.536;2022-09-09T15:19:46;1.43;;;0.80;;
3815;SDS011;1923;48.154;11.536;2022-09-09T15:22:16;0.97;;;0.73;;
3815;SDS011;1923;48.154;11.536;2022-09-09T15:24:45;1.53;;;0.63;;
3815;SDS011;1923;48.154;11.536;2022-09-09T15:27:13;1.03;;;0.70;;
3815;SDS011;1923;48.154;11.536;2022-09-09T15:29:41;1.93;;;0.50;;
3815;SDS011;1923;48.154;11.536;2022-09-09T15:32:10;2.80;;;0.70;;
3815;SDS011;1923;48.154;11.536;2022-09-09T15:34:40;3.40;;;0.73;;
3815;SDS011;1923;48.154;11.536;2022-09-09T15:37:09;3.30;;;0.90;;
3815;SDS011;1923;48.154;11.536;2022-09-09T15:39:39;1.83;;;0.90;;
3815;SDS011;1923;48.154;11.536;2022-09-09T15:42:07;1.13;;;0.70;;